Time;durP1;ratioP1;P1;durP2;ratioP2;P2;SDS_P1;SDS_P2;PMS_P1;PMS_P2;Temp;Humidity;BMP_temperature;BMP_pressure;BME280_temperature;BME280_humidity;BME280_pressure;Samples;Min_cycle;Max_cycle;Signal;HPM_P1;HPM_P2
2023/10/24 00:00:18;;;;;;;15.15;9.95;;;10.30;99.90;;;;;;5024372;28;20316;-63
2023/10/24 00:02:44;;;;;;;17.73;10.75;;;10.30;99.90;;;;;;5014206;28;20032;-63
2023/10/24 00:05:10;;;;;;;17.00;10.50;;;10.30;99.90;;;;;;5022522;28;20029;-63
2023/10/24 00:07:36;;;;;;;17.25;10.75;;;10.30;99.90;;;;;;5023649;28;20072;-63
2023/10/24 00:10:02;;;;;;;16.65;11.05;;;10.30;99.90;;;;;;5022228;28;20614;-62
2023/10/24 00:12:29;;;;;;;16.10;10.73;;;10.30;99.90;;;;;;4998832;28;20458;-63
2023/10/24 00:14:57;;;;;;;16.45;10.98;;;10.30;99.90;;;;;;5024827;28;20056;-63
2023/10/24 00:17:23;;;;;;;13.70;10.43;;;10.30;99.90;;;;;;5020708;28;20063;-62
2023/10/24 00:19:49;;;;;;;16.92;10.73;;;10.30;99.90;;;;;;5012104;28;20691;-63
2023/10/24 00:22:15;;;;;;;14.95;10.38;;;10.20;99.90;;;;;;5021952;28;20500;-63
2023/10/24 00:24:41;;;;;;;17.02;10.80;;;10.20;99.90;;;;;;5021669;28;20458;-61
2023/10/24 00:27:06;;;;;;;18.05;11.32;;;10.20;99.90;;;;;;5030990;28;20033;-63
2023/10/24 00:29:32;;;;;;;17.85;11.00;;;10.20;99.90;;;;;;5031412;28;20044;-63
2023/10/24 00:31:58;;;;;;;17.70;10.70;;;10.20;99.90;;;;;;5016953;28;20049;-63
2023/10/24 00:34:23;;;;;;;17.90;10.90;;;10.30;99.90;;;;;;5035959;28;20048;-63
2023/10/24 00:36:49;;;;;;;18.63;10.98;;;10.30;99.90;;;;;;5035660;28;20087;-63
2023/10/24 00:39:15;;;;;;;19.42;10.82;;;10.30;99.90;;;;;;5034018;28;20041;-63
2023/10/24 00:41:41;;;;;;;17.15;11.30;;;10.30;99.90;;;;;;5031783;28;20038;-63
2023/10/24 00:44:07;;;;;;;18.23;10.68;;;10.30;99.90;;;;;;5029224;28;20041;-64
2023/10/24 00:46:34;;;;;;;18.75;10.57;;;10.30;99.90;;;;;;5006782;28;20575;-64
2023/10/24 00:49:01;;;;;;;16.58;11.07;;;10.30;99.90;;;;;;5009793;28;20044;-64
2023/10/24 00:51:26;;;;;;;18.52;11.25;;;10.20;99.90;;;;;;5015294;28;20048;-63
2023/10/24 00:53:54;;;;;;;20.05;10.80;;;10.30;99.90;;;;;;5014217;28;20049;-63
2023/10/24 00:56:21;;;;;;;16.42;10.60;;;10.30;99.90;;;;;;5014726;28;20041;-63
2023/10/24 00:58:48;;;;;;;17.73;11.07;;;10.20;99.90;;;;;;5014442;28;20393;-63
2023/10/24 01:01:15;;;;;;;17.88;10.93;;;10.30;99.90;;;;;;5011801;28;20120;-62
2023/10/24 01:03:43;;;;;;;16.58;10.95;;;10.30;99.90;;;;;;5013839;28;20064;-63
2023/10/24 01:06:09;;;;;;;18.38;11.52;;;10.30;99.90;;;;;;5008104;28;20041;-63
2023/10/24 01:08:36;;;;;;;16.67;10.68;;;10.30;99.90;;;;;;5011652;28;20041;-62
2023/10/24 01:11:02;;;;;;;18.45;11.48;;;10.30;99.90;;;;;;5014406;28;20063;-64
2023/10/24 01:13:28;;;;;;;16.35;11.15;;;10.20;99.90;;;;;;5013154;28;20045;-63
2023/10/24 01:15:55;;;;;;;20.70;10.95;;;10.20;99.90;;;;;;5021861;28;20511;-63
2023/10/24 01:18:21;;;;;;;17.13;10.88;;;10.20;99.90;;;;;;5020119;28;20037;-63
2023/10/24 01:20:47;;;;;;;19.10;11.70;;;10.20;99.90;;;;;;5023540;28;20051;-63
2023/10/24 01:23:13;;;;;;;19.98;11.95;;;10.20;99.90;;;;;;4989417;28;20034;-63
2023/10/24 01:25:40;;;;;;;17.90;11.70;;;10.20;99.90;;;;;;5034769;28;20049;-63
2023/10/24 01:28:07;;;;;;;17.35;11.68;;;10.20;99.90;;;;;;5016607;28;20037;-62
2023/10/24 01:30:33;;;;;;;18.90;11.70;;;10.20;99.90;;;;;;5030026;28;20038;-63
2023/10/24 01:32:59;;;;;;;18.85;11.50;;;10.20;99.90;;;;;;5012222;28;20045;-62
2023/10/24 01:35:25;;;;;;;17.92;11.60;;;10.20;99.90;;;;;;5013911;28;20047;-62
2023/10/24 01:37:51;;;;;;;19.35;11.55;;;10.20;99.90;;;;;;5021430;28;20041;-64
2023/10/24 01:40:17;;;;;;;19.02;11.73;;;10.20;99.90;;;;;;5007698;28;20041;-62
2023/10/24 01:42:42;;;;;;;19.50;11.75;;;10.20;99.90;;;;;;4991495;28;20073;-61
2023/10/24 01:45:09;;;;;;;16.92;11.07;;;10.20;99.90;;;;;;5003927;28;20053;-63
2023/10/24 01:47:34;;;;;;;18.38;11.68;;;10.20;99.90;;;;;;5009749;28;20084;-61
2023/10/24 01:50:00;;;;;;;23.48;12.85;;;10.20;99.90;;;;;;5004797;28;20971;-63
2023/10/24 01:52:26;;;;;;;20.75;12.43;;;10.20;99.90;;;;;;5005684;28;20492;-63
2023/10/24 01:54:51;;;;;;;27.08;12.40;;;10.20;99.90;;;;;;5006365;28;20175;-62
2023/10/24 01:57:17;;;;;;;22.23;13.07;;;10.20;99.90;;;;;;5004922;28;20041;-61
2023/10/24 01:59:43;;;;;;;20.35;12.75;;;10.20;99.90;;;;;;5002904;28;20045;-62
2023/10/24 02:02:09;;;;;;;22.63;13.35;;;10.10;99.90;;;;;;5004198;28;20045;-63
2023/10/24 02:04:34;;;;;;;19.02;12.10;;;10.20;99.90;;;;;;5004741;28;20055;-63
2023/10/24 02:07:01;;;;;;;20.95;13.18;;;10.20;99.90;;;;;;5004242;28;20129;-63
2023/10/24 02:09:29;;;;;;;24.02;13.60;;;10.20;99.90;;;;;;5005176;28;20041;-64
2023/10/24 02:11:56;;;;;;;20.20;13.00;;;10.10;99.90;;;;;;5015654;28;20052;-63
2023/10/24 02:14:22;;;;;;;20.50;13.27;;;10.20;99.90;;;;;;5014137;28;20045;-62
2023/10/24 02:16:48;;;;;;;20.17;12.82;;;10.20;99.90;;;;;;5022429;28;20447;-61
2023/10/24 02:19:14;;;;;;;21.95;12.88;;;10.20;99.90;;;;;;5012097;28;20048;-63
2023/10/24 02:21:39;;;;;;;21.73;13.05;;;10.20;99.90;;;;;;5011358;28;20073;-64
2023/10/24 02:24:05;;;;;;;20.67;13.60;;;10.20;99.90;;;;;;5010911;28;20266;-63
2023/10/24 02:26:31;;;;;;;19.38;13.30;;;10.20;99.90;;;;;;5027203;28;20034;-61
2023/10/24 02:28:57;;;;;;;19.92;13.23;;;10.10;99.90;;;;;;5007007;28;20124;-63
2023/10/24 02:31:23;;;;;;;19.60;12.93;;;10.20;99.90;;;;;;5013806;28;20037;-63
2023/10/24 02:33:49;;;;;;;22.73;13.40;;;10.20;99.90;;;;;;5016049;28;20089;-63
2023/10/24 02:36:15;;;;;;;17.90;12.40;;;10.20;99.90;;;;;;4994867;28;20045;-62
2023/10/24 02:38:41;;;;;;;23.17;13.40;;;10.20;99.90;;;;;;5010124;28;20412;-62
2023/10/24 02:41:07;;;;;;;21.67;13.20;;;10.20;99.90;;;;;;5011392;28;20688;-63
2023/10/24 02:43:33;;;;;;;19.80;12.93;;;10.20;99.90;;;;;;5011479;28;20048;-62
2023/10/24 02:46:03;;;;;;;21.52;13.75;;;10.20;99.90;;;;;;5009647;28;20048;-63
2023/10/24 02:48:29;;;;;;;20.15;12.85;;;10.20;99.90;;;;;;5033018;28;20041;-63
2023/10/24 02:50:56;;;;;;;20.42;12.85;;;10.20;99.90;;;;;;5033828;28;20297;-63
2023/10/24 02:53:22;;;;;;;17.30;12.35;;;10.30;99.90;;;;;;5034665;28;20045;-63
2023/10/24 02:55:48;;;;;;;19.90;12.82;;;10.30;99.90;;;;;;5031288;28;20056;-63
2023/10/24 02:58:15;;;;;;;20.15;12.65;;;10.30;99.90;;;;;;5014120;28;20057;-63
2023/10/24 03:00:41;;;;;;;18.60;12.50;;;10.30;99.90;;;;;;5023578;28;20114;-62
2023/10/24 03:03:07;;;;;;;20.27;13.00;;;10.30;99.90;;;;;;5031522;28;20029;-64
2023/10/24 03:05:33;;;;;;;18.48;12.50;;;10.30;99.90;;;;;;5028694;28;20609;-63
2023/10/24 03:07:59;;;;;;;18.45;12.63;;;10.30;99.90;;;;;;5030724;28;20029;-63
2023/10/24 03:10:25;;;;;;;18.65;12.57;;;10.40;99.90;;;;;;5027466;28;20040;-63
2023/10/24 03:12:55;;;;;;;22.05;13.48;;;10.40;99.90;;;;;;5014681;28;20360;-63
2023/10/24 03:15:21;;;;;;;19.10;12.68;;;10.40;99.90;;;;;;5031357;28;20953;-63
2023/10/24 03:17:47;;;;;;;19.48;12.93;;;10.40;99.90;;;;;;5031378;28;20037;-62
2023/10/24 03:20:12;;;;;;;21.65;13.57;;;10.40;99.90;;;;;;4995973;28;21707;-64
2023/10/24 03:22:39;;;;;;;20.23;13.30;;;10.40;99.90;;;;;;5022202;28;20128;-63
2023/10/24 03:25:05;;;;;;;17.67;12.10;;;10.40;99.90;;;;;;5023756;28;20076;-63
2023/10/24 03:27:31;;;;;;;21.48;13.23;;;10.50;99.90;;;;;;5020741;28;20069;-62
2023/10/24 03:29:57;;;;;;;21.27;13.13;;;10.40;99.90;;;;;;5021348;28;20154;-61
2023/10/24 03:32:23;;;;;;;18.58;12.77;;;10.40;99.90;;;;;;5023845;28;20134;-63
2023/10/24 03:34:48;;;;;;;18.65;12.02;;;10.50;99.90;;;;;;5010927;28;20496;-62
2023/10/24 03:37:15;;;;;;;17.33;11.95;;;10.50;99.90;;;;;;5025932;28;20044;-63
2023/10/24 03:39:41;;;;;;;18.35;13.00;;;10.50;99.90;;;;;;5025995;28;20048;-64
2023/10/24 03:42:11;;;;;;;18.05;12.55;;;10.50;99.90;;;;;;5004934;28;20082;-63
2023/10/24 03:44:37;;;;;;;19.90;12.85;;;10.60;99.90;;;;;;5024857;28;20054;-62
2023/10/24 03:47:02;;;;;;;19.98;12.45;;;10.60;99.90;;;;;;5005929;28;20149;-62
2023/10/24 03:49:28;;;;;;;19.33;12.73;;;10.60;99.90;;;;;;5031871;28;20551;-63
2023/10/24 03:51:54;;;;;;;20.25;12.85;;;10.60;99.90;;;;;;5030888;28;20036;-63
2023/10/24 03:54:20;;;;;;;18.23;12.13;;;10.60;99.90;;;;;;5017014;28;20226;-62
2023/10/24 03:56:45;;;;;;;17.65;12.15;;;10.60;99.90;;;;;;5027307;28;20071;-62
2023/10/24 03:59:11;;;;;;;16.95;12.35;;;10.70;99.90;;;;;;5036980;28;20041;-62
2023/10/24 04:01:37;;;;;;;20.80;12.35;;;10.70;99.90;;;;;;5007832;28;20049;-63
2023/10/24 04:04:03;;;;;;;19.40;12.10;;;10.70;99.90;;;;;;5031413;28;20040;-63
2023/10/24 04:06:28;;;;;;;17.45;12.18;;;10.70;99.90;;;;;;5035731;28;20029;-62
2023/10/24 04:08:56;;;;;;;17.95;11.60;;;10.70;99.90;;;;;;5019405;28;20454;-62
2023/10/24 04:11:22;;;;;;;16.27;11.85;;;10.70;99.90;;;;;;5035699;28;20072;-63
2023/10/24 04:13:48;;;;;;;19.50;12.10;;;10.80;99.90;;;;;;5035869;28;20124;-63
2023/10/24 04:16:14;;;;;;;19.23;12.20;;;10.80;99.90;;;;;;5030440;28;20478;-63
2023/10/24 04:18:40;;;;;;;16.92;12.20;;;10.80;99.90;;;;;;5036413;28;20048;-61
2023/10/24 04:21:05;;;;;;;18.77;12.80;;;10.80;99.90;;;;;;5019436;28;20045;-62
2023/10/24 04:23:31;;;;;;;19.42;12.43;;;10.80;99.90;;;;;;5017051;28;20607;-63
2023/10/24 04:25:57;;;;;;;18.60;12.35;;;10.80;99.90;;;;;;5015832;28;20045;-63
2023/10/24 04:28:23;;;;;;;18.38;13.07;;;10.80;99.90;;;;;;5030945;28;21095;-63
2023/10/24 04:30:51;;;;;;;23.58;12.93;;;10.90;99.90;;;;;;5033409;28;20044;-64
2023/10/24 04:33:17;;;;;;;18.38;13.07;;;10.90;99.90;;;;;;5027501;28;20145;-64
2023/10/24 04:35:47;;;;;;;18.73;13.02;;;10.90;99.90;;;;;;5034435;28;20053;-62
2023/10/24 04:38:15;;;;;;;21.40;13.48;;;10.90;99.90;;;;;;5031819;28;20045;-63
2023/10/24 04:40:41;;;;;;;20.42;12.80;;;10.90;99.90;;;;;;5038262;28;20045;-62
2023/10/24 04:43:07;;;;;;;20.10;13.60;;;10.80;99.90;;;;;;5034978;28;20513;-62
2023/10/24 04:45:51;;;;;;;22.42;13.60;;;10.90;99.90;;;;;;5008719;28;20049;-62
2023/10/24 04:48:17;;;;;;;21.52;14.50;;;10.90;99.90;;;;;;5020889;28;20056;-63
2023/10/24 04:50:43;;;;;;;17.98;13.10;;;10.90;99.90;;;;;;5040226;28;20049;-62
2023/10/24 04:53:08;;;;;;;21.92;13.48;;;10.90;99.90;;;;;;5016942;28;20041;-64
2023/10/24 04:55:35;;;;;;;21.40;13.32;;;11.00;99.90;;;;;;5018116;28;20419;-61
2023/10/24 04:58:02;;;;;;;20.52;13.05;;;11.00;99.90;;;;;;5012870;28;20665;-63
2023/10/24 05:00:28;;;;;;;19.15;13.15;;;11.00;99.90;;;;;;5008673;28;20087;-62
2023/10/24 05:02:54;;;;;;;20.05;12.60;;;10.90;99.90;;;;;;5030212;28;20037;-64
2023/10/24 05:05:19;;;;;;;20.92;13.50;;;11.00;99.90;;;;;;5007443;28;20044;-61
2023/10/24 05:07:45;;;;;;;19.02;13.15;;;11.00;99.90;;;;;;5025423;28;20041;-63
2023/10/24 05:10:11;;;;;;;17.65;12.68;;;11.00;99.90;;;;;;5011013;28;20484;-62
2023/10/24 05:12:37;;;;;;;18.70;13.35;;;11.00;99.90;;;;;;5028912;28;20911;-63
2023/10/24 05:15:04;;;;;;;18.40;13.07;;;11.00;99.90;;;;;;5012010;28;20045;-62
2023/10/24 05:17:30;;;;;;;18.88;13.82;;;11.00;99.90;;;;;;5019734;28;20119;-62
2023/10/24 05:20:01;;;;;;;18.55;13.43;;;11.10;99.90;;;;;;5033396;28;20489;-63
2023/10/24 05:22:26;;;;;;;24.05;14.43;;;11.10;99.90;;;;;;5010016;28;20059;-62
2023/10/24 05:24:52;;;;;;;20.60;13.70;;;11.10;99.90;;;;;;5023419;28;20040;-63
2023/10/24 05:27:18;;;;;;;20.23;14.07;;;11.10;99.90;;;;;;5023730;28;20070;-63
2023/10/24 05:29:44;;;;;;;24.33;15.35;;;11.10;99.90;;;;;;5038067;28;20029;-63
2023/10/24 05:32:10;;;;;;;27.38;14.05;;;11.10;99.90;;;;;;5004358;28;20048;-63
2023/10/24 05:34:36;;;;;;;21.05;14.52;;;11.20;99.90;;;;;;5034239;28;20049;-62
2023/10/24 05:37:01;;;;;;;18.35;13.52;;;11.20;99.90;;;;;;5033698;28;20052;-63
2023/10/24 05:39:28;;;;;;;20.58;14.00;;;11.20;99.90;;;;;;5019446;28;20044;-63
2023/10/24 05:41:54;;;;;;;21.13;13.82;;;11.20;99.90;;;;;;5036087;28;20051;-63
2023/10/24 05:44:20;;;;;;;20.83;13.80;;;11.20;99.90;;;;;;5029443;28;20069;-63
2023/10/24 05:46:46;;;;;;;19.55;14.20;;;11.20;99.90;;;;;;5020975;28;20057;-63
2023/10/24 05:49:12;;;;;;;21.98;14.05;;;11.20;99.90;;;;;;5039235;28;20049;-62
2023/10/24 05:51:38;;;;;;;21.45;14.48;;;11.20;99.90;;;;;;5021814;28;20037;-62
2023/10/24 05:54:03;;;;;;;23.08;13.80;;;11.20;99.90;;;;;;5022925;28;20041;-63
2023/10/24 05:56:32;;;;;;;18.35;13.75;;;11.20;99.90;;;;;;5025611;28;20036;-64
2023/10/24 05:58:58;;;;;;;20.65;13.98;;;11.20;99.90;;;;;;5023512;28;20041;-63
2023/10/24 06:01:24;;;;;;;23.77;13.95;;;11.20;99.90;;;;;;5009271;28;21193;-61
2023/10/24 06:03:49;;;;;;;19.33;13.73;;;11.20;99.90;;;;;;5018234;28;20469;-64
2023/10/24 06:06:16;;;;;;;20.02;14.52;;;11.20;99.90;;;;;;5024737;28;20570;-62
2023/10/24 06:08:42;;;;;;;18.55;13.38;;;11.20;99.90;;;;;;5027288;28;20037;-63
2023/10/24 06:11:07;;;;;;;18.13;13.40;;;11.20;99.90;;;;;;5036798;28;20045;-63
2023/10/24 06:13:33;;;;;;;17.02;13.85;;;11.20;99.90;;;;;;5021171;28;20044;-63
2023/10/24 06:16:27;;;;;;;18.95;13.27;;;11.20;99.90;;;;;;5018754;28;20402;-63
2023/10/24 06:18:53;;;;;;;17.08;13.18;;;11.20;99.90;;;;;;4981702;28;20502;-63
2023/10/24 06:21:18;;;;;;;20.75;13.85;;;11.30;99.90;;;;;;5026490;28;20041;-62
2023/10/24 06:23:45;;;;;;;20.02;13.70;;;11.20;99.90;;;;;;5028437;28;20049;-64
2023/10/24 06:26:13;;;;;;;17.70;14.20;;;11.20;99.90;;;;;;5025228;28;20088;-63
2023/10/24 06:28:38;;;;;;;19.85;13.43;;;11.30;99.90;;;;;;5017916;28;20080;-62
2023/10/24 06:31:04;;;;;;;22.35;13.75;;;11.30;99.90;;;;;;5019552;28;20427;-63
2023/10/24 06:33:31;;;;;;;17.52;12.90;;;11.30;99.90;;;;;;5032909;28;20030;-62
2023/10/24 06:35:59;;;;;;;17.13;12.77;;;11.30;99.90;;;;;;5023107;28;20033;-63
2023/10/24 06:38:26;;;;;;;19.05;12.63;;;11.30;99.90;;;;;;5029770;28;20037;-64
2023/10/24 06:40:52;;;;;;;16.15;12.32;;;11.30;99.90;;;;;;5015305;28;20052;-63
2023/10/24 06:43:18;;;;;;;15.40;11.50;;;11.30;99.90;;;;;;5008213;28;20049;-62
2023/10/24 06:45:48;;;;;;;17.02;12.15;;;11.30;99.90;;;;;;5019707;28;20049;-63
2023/10/24 06:48:14;;;;;;;18.13;12.57;;;11.30;99.90;;;;;;5045623;28;20549;-63
2023/10/24 06:50:40;;;;;;;15.70;12.45;;;11.30;99.90;;;;;;5023443;28;20049;-63
2023/10/24 06:53:07;;;;;;;18.48;11.82;;;11.30;99.90;;;;;;5040330;28;20123;-63
2023/10/24 06:55:33;;;;;;;15.43;11.30;;;11.30;99.90;;;;;;5039319;28;20037;-64
2023/10/24 06:57:58;;;;;;;15.52;11.85;;;11.30;99.90;;;;;;5019229;28;20426;-64
2023/10/24 07:00:25;;;;;;;16.50;10.93;;;11.40;99.90;;;;;;5021390;28;20447;-63
2023/10/24 07:02:51;;;;;;;12.98;10.43;;;11.30;99.90;;;;;;5017961;28;20049;-63
2023/10/24 07:05:18;;;;;;;13.88;11.07;;;11.40;99.90;;;;;;5034990;28;20051;-63
2023/10/24 07:07:44;;;;;;;16.00;10.57;;;11.40;99.90;;;;;;5034117;28;20037;-62
2023/10/24 07:10:10;;;;;;;15.20;9.98;;;11.40;99.90;;;;;;5019568;28;20028;-63
2023/10/24 07:12:35;;;;;;;14.18;9.73;;;11.40;99.90;;;;;;5015989;28;20124;-63
2023/10/24 07:15:03;;;;;;;14.23;9.52;;;11.40;99.90;;;;;;5027638;28;20072;-63
2023/10/24 07:17:30;;;;;;;12.85;8.95;;;11.40;99.90;;;;;;5031476;28;20048;-62
2023/10/24 07:19:59;;;;;;;12.05;9.10;;;11.40;99.90;;;;;;5026839;28;20051;-63
2023/10/24 07:22:26;;;;;;;14.93;8.98;;;11.40;99.90;;;;;;5028860;28;20400;-63
2023/10/24 07:24:52;;;;;;;14.05;9.25;;;11.40;99.90;;;;;;5000370;28;20041;-63
2023/10/24 07:27:18;;;;;;;11.55;8.95;;;11.40;99.90;;;;;;5029951;28;20033;-62
2023/10/24 07:29:45;;;;;;;11.95;9.13;;;11.40;99.90;;;;;;5028504;28;20064;-61
2023/10/24 07:32:11;;;;;;;11.80;8.48;;;11.30;99.90;;;;;;5010277;28;20048;-63
2023/10/24 07:34:39;;;;;;;14.30;8.88;;;11.40;99.90;;;;;;5024290;28;20072;-62
2023/10/24 07:37:05;;;;;;;11.35;8.60;;;11.30;99.90;;;;;;5009938;28;20049;-62
2023/10/24 07:39:31;;;;;;;12.27;9.15;;;11.30;99.90;;;;;;5004864;28;20140;-62
2023/10/24 07:41:57;;;;;;;13.48;9.18;;;11.30;99.90;;;;;;5004849;28;20059;-62
2023/10/24 07:44:22;;;;;;;14.13;9.75;;;11.30;99.90;;;;;;5026886;28;20043;-62
2023/10/24 07:46:48;;;;;;;15.32;9.80;;;11.30;99.90;;;;;;5029002;28;21732;-63
2023/10/24 07:49:14;;;;;;;14.13;9.85;;;11.30;99.90;;;;;;5030884;28;20765;-63
2023/10/24 07:51:40;;;;;;;13.00;9.45;;;11.30;99.90;;;;;;5020285;28;20043;-62
2023/10/24 07:54:05;;;;;;;12.90;9.55;;;11.30;99.90;;;;;;5022172;28;20049;-63
2023/10/24 07:56:31;;;;;;;13.88;10.05;;;11.30;99.90;;;;;;5033962;28;20383;-63
2023/10/24 07:58:57;;;;;;;12.38;10.10;;;11.30;99.90;;;;;;5024400;28;20063;-63
2023/10/24 08:01:23;;;;;;;13.55;10.00;;;11.30;99.90;;;;;;5006710;28;20397;-62
2023/10/24 08:03:49;;;;;;;13.60;9.50;;;11.30;99.90;;;;;;5027405;28;20048;-63
2023/10/24 08:06:15;;;;;;;17.00;10.30;;;11.30;99.90;;;;;;5026452;28;20075;-62
2023/10/24 08:08:43;;;;;;;14.35;10.40;;;11.30;99.90;;;;;;5008469;28;20049;-63
2023/10/24 08:11:09;;;;;;;13.60;9.90;;;11.40;99.90;;;;;;5022104;28;20052;-63
2023/10/24 08:13:35;;;;;;;14.85;10.77;;;11.40;99.90;;;;;;5002828;28;20056;-63
2023/10/24 08:16:00;;;;;;;12.38;9.30;;;11.40;99.90;;;;;;5019390;28;20421;-61
2023/10/24 08:18:26;;;;;;;13.48;9.57;;;11.40;99.90;;;;;;5007124;28;20055;-63
2023/10/24 08:20:53;;;;;;;14.00;9.80;;;11.40;99.90;;;;;;5029136;28;20049;-64
2023/10/24 08:23:18;;;;;;;13.15;9.73;;;11.40;99.90;;;;;;5035091;28;20052;-63
2023/10/24 08:25:44;;;;;;;14.00;9.93;;;11.40;99.90;;;;;;4994821;28;20043;-63
2023/10/24 08:28:10;;;;;;;15.73;10.00;;;11.40;99.90;;;;;;5030191;28;20072;-62
2023/10/24 08:30:35;;;;;;;11.32;9.02;;;11.40;99.90;;;;;;5015403;28;20041;-62
2023/10/24 08:33:01;;;;;;;18.98;9.40;;;11.40;99.90;;;;;;5003051;28;20245;-61
2023/10/24 08:35:27;;;;;;;12.05;9.30;;;11.40;99.90;;;;;;5009005;28;20541;-64
2023/10/24 08:37:53;;;;;;;13.20;9.75;;;11.40;99.90;;;;;;5025711;28;20123;-62
2023/10/24 08:40:20;;;;;;;16.73;10.45;;;11.40;99.90;;;;;;5025786;28;20072;-63
2023/10/24 08:42:46;;;;;;;16.15;10.15;;;11.40;99.90;;;;;;5014358;28;20124;-63
2023/10/24 08:45:17;;;;;;;13.45;10.05;;;11.40;99.90;;;;;;5028698;28;20625;-63
2023/10/24 08:47:43;;;;;;;15.43;10.23;;;11.40;99.90;;;;;;5020607;28;20055;-63
2023/10/24 08:50:09;;;;;;;15.98;10.45;;;11.40;99.90;;;;;;5047543;28;20032;-63
2023/10/24 08:52:35;;;;;;;14.73;10.35;;;11.40;99.90;;;;;;5036776;28;20044;-62
2023/10/24 08:55:06;;;;;;;13.30;10.15;;;11.40;99.90;;;;;;5049155;28;20557;-63
2023/10/24 08:57:39;;;;;;;14.18;10.52;;;11.40;99.90;;;;;;5050504;28;20044;-63
2023/10/24 09:00:08;;;;;;;16.85;9.95;;;11.40;99.90;;;;;;5031897;28;20114;-64
2023/10/24 09:02:35;;;;;;;14.98;10.18;;;11.40;99.90;;;;;;5042834;28;20108;-64
2023/10/24 09:05:01;;;;;;;17.48;10.85;;;11.40;99.90;;;;;;5041127;28;20049;-63
2023/10/24 09:07:27;;;;;;;17.23;10.48;;;11.40;99.90;;;;;;5039011;28;20040;-63
2023/10/24 09:09:53;;;;;;;14.43;10.35;;;11.40;99.90;;;;;;5041952;28;20041;-61
2023/10/24 09:12:21;;;;;;;14.80;10.50;;;11.40;99.90;;;;;;5041959;28;20059;-63
2023/10/24 09:14:48;;;;;;;16.55;9.98;;;11.40;99.90;;;;;;5040259;28;20481;-63
2023/10/24 09:17:18;;;;;;;15.30;10.30;;;11.50;99.90;;;;;;5021825;28;20048;-63
2023/10/24 09:19:43;;;;;;;15.88;10.32;;;11.50;99.90;;;;;;5039555;28;20044;-63
2023/10/24 09:22:12;;;;;;;17.95;10.65;;;11.50;99.90;;;;;;5034729;28;20077;-62
2023/10/24 09:24:44;;;;;;;17.15;11.00;;;11.50;99.90;;;;;;5042520;28;20045;-63
2023/10/24 09:27:09;;;;;;;15.50;10.68;;;11.50;99.90;;;;;;5040355;28;20082;-63
2023/10/24 09:29:36;;;;;;;19.00;11.27;;;11.50;99.90;;;;;;5040213;28;20041;-63
2023/10/24 09:32:02;;;;;;;20.08;11.18;;;11.50;99.90;;;;;;5040493;28;20053;-64
2023/10/24 09:34:29;;;;;;;17.50;10.63;;;11.50;99.90;;;;;;5030769;28;20036;-63
2023/10/24 09:37:06;;;;;;;17.05;11.13;;;11.50;99.90;;;;;;5029968;28;20044;-62
2023/10/24 09:39:32;;;;;;;16.75;10.93;;;11.50;99.90;;;;;;5033475;28;20453;-63
2023/10/24 09:41:58;;;;;;;15.77;10.52;;;11.50;99.90;;;;;;5021097;28;20041;-62
2023/10/24 09:44:24;;;;;;;18.88;11.32;;;11.40;99.90;;;;;;5022951;28;20048;-64
2023/10/24 09:46:53;;;;;;;16.73;11.30;;;11.50;99.90;;;;;;5041106;28;20049;-63
2023/10/24 09:49:20;;;;;;;16.63;11.40;;;11.50;99.90;;;;;;5022162;28;20978;-62
2023/10/24 09:51:46;;;;;;;16.23;11.50;;;11.50;99.90;;;;;;5012223;28;20065;-62
2023/10/24 09:54:12;;;;;;;16.10;10.85;;;11.50;99.90;;;;;;5005118;28;20044;-63
2023/10/24 09:56:39;;;;;;;15.88;11.07;;;11.40;99.90;;;;;;5021229;28;20051;-64
2023/10/24 09:59:05;;;;;;;15.02;10.73;;;11.40;99.90;;;;;;5022194;28;20088;-63
2023/10/24 10:01:31;;;;;;;15.52;10.52;;;11.40;99.90;;;;;;5039325;28;20048;-63
2023/10/24 10:04:00;;;;;;;16.23;11.18;;;11.40;99.90;;;;;;5041315;28;20047;-63
2023/10/24 10:06:30;;;;;;;16.70;11.15;;;11.40;99.90;;;;;;5022606;28;20094;-63
2023/10/24 10:08:59;;;;;;;15.45;11.02;;;11.40;99.90;;;;;;5039264;28;20041;-63
2023/10/24 10:11:30;;;;;;;14.32;10.50;;;11.40;99.90;;;;;;5035606;28;20049;-64
2023/10/24 10:14:18;;;;;;;21.90;11.60;;;11.40;99.90;;;;;;5039400;28;20080;-62
2023/10/24 10:17:10;;;;;;;15.02;10.82;;;11.40;99.90;;;;;;5038202;28;20064;-63
2023/10/24 10:20:17;;;;;;;16.15;11.10;;;11.40;99.90;;;;;;5042545;28;20471;-63
2023/10/24 10:22:49;;;;;;;16.75;11.32;;;11.40;99.90;;;;;;4965158;28;20684;-63
2023/10/24 10:25:49;;;;;;;17.35;10.82;;;11.40;99.90;;;;;;5048321;28;20132;-63
2023/10/24 10:28:49;;;;;;;15.70;10.57;;;11.40;99.90;;;;;;5047609;28;20503;-63
2023/10/24 10:31:54;;;;;;;15.98;11.13;;;11.40;99.90;;;;;;5047549;28;20059;-63
2023/10/24 10:34:36;;;;;;;18.05;11.93;;;11.40;99.90;;;;;;5046620;28;20124;-63
2023/10/24 10:37:02;;;;;;;15.23;11.45;;;11.40;99.90;;;;;;5044078;28;20406;-62
2023/10/24 10:39:29;;;;;;;18.73;11.80;;;11.40;99.90;;;;;;5049126;28;20078;-64
2023/10/24 10:41:55;;;;;;;16.42;11.20;;;11.40;99.90;;;;;;5048712;28;20077;-64
2023/10/24 10:44:39;;;;;;;15.32;10.98;;;11.40;99.90;;;;;;5046618;28;20076;-64
2023/10/24 10:47:06;;;;;;;14.57;10.45;;;11.40;99.90;;;;;;5025945;28;20123;-64
2023/10/24 10:49:42;;;;;;;13.70;10.57;;;11.50;99.90;;;;;;5046709;28;20037;-63
2023/10/24 10:52:56;;;;;;;15.55;11.00;;;11.50;99.90;;;;;;5031355;28;20443;-63
2023/10/24 10:55:56;;;;;;;14.45;10.57;;;11.50;99.90;;;;;;5023848;28;20053;-64
2023/10/24 10:58:45;;;;;;;15.40;11.10;;;11.50;99.90;;;;;;5044849;28;20194;-63
2023/10/24 11:01:20;;;;;;;15.15;11.02;;;11.50;99.90;;;;;;5048881;28;20677;-63
2023/10/24 11:03:49;;;;;;;15.65;10.60;;;11.60;99.90;;;;;;5031631;28;20044;-63
2023/10/24 11:06:16;;;;;;;13.80;10.80;;;11.60;99.90;;;;;;5046746;28;20036;-62
2023/10/24 11:09:09;;;;;;;18.05;11.05;;;11.70;99.90;;;;;;5004857;28;20037;-64
2023/10/24 11:11:37;;;;;;;15.10;11.50;;;11.80;99.90;;;;;;5036646;28;20057;-63
2023/10/24 11:14:32;;;;;;;20.45;11.38;;;11.90;99.90;;;;;;5038071;28;20037;-63
2023/10/24 11:17:00;;;;;;;13.25;10.43;;;11.90;99.90;;;;;;5021422;28;20051;-63
2023/10/24 11:19:26;;;;;;;18.08;10.75;;;11.90;99.90;;;;;;5005298;28;20056;-63
2023/10/24 11:21:54;;;;;;;15.20;10.30;;;11.90;99.90;;;;;;5039816;28;20503;-63
2023/10/24 11:24:21;;;;;;;14.00;10.25;;;11.90;99.90;;;;;;5004694;28;20126;-63
2023/10/24 11:26:57;;;;;;;14.00;10.50;;;11.90;99.90;;;;;;5038285;28;20136;-63
2023/10/24 11:29:23;;;;;;;17.17;11.20;;;12.00;99.90;;;;;;5036670;28;20033;-63
2023/10/24 11:31:49;;;;;;;13.95;10.75;;;12.00;99.90;;;;;;5010851;28;20052;-63
2023/10/24 11:34:15;;;;;;;15.48;11.07;;;11.90;99.90;;;;;;5022046;28;20076;-62
2023/10/24 11:36:45;;;;;;;15.60;11.60;;;12.00;99.90;;;;;;5022060;28;20051;-63
2023/10/24 11:39:14;;;;;;;15.65;10.50;;;12.00;99.90;;;;;;5036897;28;20482;-63
2023/10/24 11:41:41;;;;;;;14.35;10.68;;;12.00;99.90;;;;;;5038790;28;20509;-63
2023/10/24 11:44:07;;;;;;;16.73;11.52;;;12.00;99.90;;;;;;5034366;28;20083;-63
2023/10/24 11:46:37;;;;;;;17.92;10.88;;;12.00;99.90;;;;;;5015139;28;20045;-63
2023/10/24 11:49:02;;;;;;;15.20;10.30;;;12.00;99.90;;;;;;5020850;28;20768;-63
2023/10/24 11:51:30;;;;;;;14.45;10.73;;;12.10;99.90;;;;;;5034242;28;20056;-63
2023/10/24 11:54:06;;;;;;;16.30;11.60;;;12.10;99.90;;;;;;4995075;28;20049;-63
2023/10/24 11:56:32;;;;;;;14.73;10.75;;;12.10;99.90;;;;;;5033495;28;20042;-61
2023/10/24 11:59:02;;;;;;;15.77;10.80;;;12.20;99.90;;;;;;5020466;28;20128;-63
2023/10/24 12:01:29;;;;;;;14.80;10.50;;;12.20;99.90;;;;;;5022787;28;20132;-62
2023/10/24 12:03:56;;;;;;;14.95;11.07;;;12.20;99.90;;;;;;5023612;28;20052;-62
2023/10/24 12:06:22;;;;;;;14.85;11.10;;;12.20;99.90;;;;;;5017525;28;20033;-63
2023/10/24 12:08:49;;;;;;;14.55;11.00;;;12.20;99.90;;;;;;5021138;28;20409;-63
2023/10/24 12:11:15;;;;;;;13.52;11.27;;;12.20;99.90;;;;;;5020070;28;20471;-63
2023/10/24 12:13:41;;;;;;;14.55;10.38;;;12.20;99.90;;;;;;5030625;28;20045;-63
2023/10/24 12:16:07;;;;;;;13.18;10.98;;;12.20;99.90;;;;;;5020794;28;20491;-63
2023/10/24 12:18:33;;;;;;;14.23;10.73;;;12.20;99.90;;;;;;5011548;28;20045;-63
2023/10/24 12:20:59;;;;;;;15.57;10.23;;;12.20;99.90;;;;;;5026359;28;20045;-63
2023/10/24 12:23:26;;;;;;;14.68;10.60;;;12.20;99.90;;;;;;5024311;28;20037;-63
2023/10/24 12:25:52;;;;;;;15.55;10.50;;;12.20;99.90;;;;;;5028260;28;20518;-63
2023/10/24 12:28:18;;;;;;;13.05;10.70;;;12.20;99.90;;;;;;5014102;28;20071;-62
2023/10/24 12:30:44;;;;;;;15.35;10.65;;;12.20;99.90;;;;;;5040742;28;20041;-63